Cordell, OK

6:34 PM CDT on September 30, 2014 (GMT -0500)
Hobart Municipal | Change Station
CLOSE
Current Station
Airport
Location: Hobart,
Elevation: 1565 ft
Nearby Weather Stations
4.1 Earthquake: Perry, Oklahoma (20 hours ago)  

Elev 1565 ft 34.99 °N, 99.05 °W | Updated 41 minutes ago

Clear
Clear
88 °F
Feels Like 86 °F
N
20
Wind Variable Wind from South

Today
High -- | Low -- °F
--% Chance of Precip.
Yesterday
High -- | Low -- °F
Precip. -- in
7:30 AM 7:21 PM
Waxing Crescent, 41% visible
Pressure 29.67 in
Visibility 10.0 miles
Clouds Clear
Heat Index 86 °F
Dew Point 56 °F
Humidity 34%
Rainfall 0.00 in
Snow Depth Not available.
UV 1 out of 12
Pollen 9.70 out of 12
Air Quality Not available.
Flu Activity Not available.
METAR KHBR 302253Z AUTO 18017KT 10SM CLR 31/13 A2972 RMK AO2 PK WND 19029/2221 SLP045 T03110133

More Conditions Fewer Conditions

Pressure 29.67 in
Visibility 10.0 miles
Clouds Clear
Heat Index 86 °F
Dew Point 56 °F
Humidity 34%
Rainfall 0.00 in
Snow Depth Not available.
UV 1 out of 12
Pollen 9.70 out of 12
Air Quality Not available.
Flu Activity Not available.
METAR KHBR 302253Z AUTO 18017KT 10SM CLR 31/13 A2972 RMK AO2 PK WND 19029/2221 SLP045 T03110133

More Conditions Fewer Conditions

10-Day Weather Forecast

Almanac

Astronomy

Sep. 30, 2014 Rise Set
Actual Time 7:30 AM CDT 7:21 PM CDT
Civil Twilight 7:04 AM CDT 7:46 PM CDT
Nautical Twilight 6:35 AM CDT 8:15 PM CDT
Astronomical Twilight 6:05 AM CDT 8:45 PM CDT
Moon 1:29 PM CDT No Moon Set
Length of Visible Light 12h 41m
Length of Day
11h 51m
Tomorrow will be 2m 11s shorter.
Waxing Crescent, 41% of the Moon is Illuminated
Today
Waxing Crescent
Oct 1
First Quarter
Oct 8
Full
Oct 15
Last Quarter
Oct 23
New

Today's Extremes

State Highs State Lows

Community

WunderPhotos

Upload Photos

1,757,768 photos uploaded!

Nearby

Snow Depth

Station Depth Elevation
No new snow has been reported.

Earthquake Activity

City Distance Mag. Time & Date
Spencer, Oklahoma 92 miles 3.0 5:12 PM CDT
2014-09-30
Perry, Oklahoma 115 miles 2.6 2:34 PM CDT
2014-09-30
Harper, Kansas 146 miles 2.9 1:49 PM CDT
2014-09-30
Harper, Kansas 147 miles 3.1 10:24 AM CDT
2014-09-30
Minimum magnitude displayed is 2.5.

Coastal Water Temperatures

Place Temperature
No Stations Reporting

Nearby Weather Stations